Terminal Aerodrome Forecast
Issued by NWS

Home | Current Version | Previous Version | Text Only | Print | Product List | Glossary Off
Versions: 1 2 3 4 5 6 7 8 9 10 11 12 13 14 15 16 17 18 19 20 21 22 23

000
FTUS43 KICT 070520
TAFHUT
TAF
KHUT 070520Z 0706/0806 02015KT 5SM -RA SCT008 BKN015 OVC040
      TEMPO 0706/0709 2SM -RA BR BKN008
     FM070900 03015KT P6SM SCT015 OVC040
     FM071200 05012KT P6SM BKN050
     FM072100 05012KT P6SM VCSH BKN050=

USA.gov is the U.S. government's official web portal to all federal, state and local government web resources and services.